createdAt,value
2023-04-17T00:02:15.990Z,24.00
2023-04-17T00:04:45.587Z,25.00
2023-04-17T00:07:12.628Z,24.73
2023-04-17T00:09:39.701Z,26.35
2023-04-17T00:12:06.885Z,24.27
2023-04-17T00:14:33.895Z,24.20
2023-04-17T00:17:00.838Z,22.60
2023-04-17T00:19:27.668Z,22.95
2023-04-17T00:21:54.640Z,23.02
2023-04-17T00:24:21.616Z,22.90
2023-04-17T00:26:48.461Z,25.05
2023-04-17T00:29:15.624Z,25.48
2023-04-17T00:31:42.875Z,24.55
2023-04-17T00:34:09.877Z,24.50
2023-04-17T00:36:36.801Z,23.45
2023-04-17T00:39:03.964Z,22.15
2023-04-17T00:41:30.882Z,21.85
2023-04-17T00:43:57.709Z,22.38
2023-04-17T00:46:24.828Z,22.17
2023-04-17T00:48:52.317Z,21.27
2023-04-17T00:51:19.590Z,20.65
2023-04-17T00:53:46.749Z,19.58
2023-04-17T00:56:13.805Z,20.10
2023-04-17T00:58:41.216Z,19.25
2023-04-17T01:01:08.643Z,18.77
2023-04-17T01:03:36.113Z,18.77
2023-04-17T01:06:03.828Z,18.63
2023-04-17T01:08:43.883Z,19.25
2023-04-17T01:11:11.584Z,18.48
2023-04-17T01:13:48.724Z,18.90
2023-04-17T01:16:16.347Z,18.75
2023-04-17T01:18:43.460Z,18.17
2023-04-17T01:21:10.469Z,19.48
2023-04-17T01:23:51.895Z,19.23
2023-04-17T01:26:25.833Z,19.50
2023-04-17T01:28:53.587Z,20.02
2023-04-17T01:31:21.256Z,21.20
2023-04-17T01:33:49.354Z,21.48
2023-04-17T01:36:16.761Z,21.58
2023-04-17T01:38:43.945Z,20.58
2023-04-17T01:41:11.614Z,21.63
2023-04-17T01:43:42.410Z,20.42
2023-04-17T01:46:09.488Z,20.30
2023-04-17T01:48:37.237Z,19.83
2023-04-17T01:51:04.745Z,19.52
2023-04-17T01:53:32.631Z,20.27
2023-04-17T01:56:01.692Z,20.55
2023-04-17T01:58:28.668Z,19.98
2023-04-17T02:00:55.830Z,18.60
2023-04-17T02:03:24.570Z,19.52
2023-04-17T02:05:53.593Z,20.55
2023-04-17T02:08:20.503Z,17.60
2023-04-17T02:10:47.464Z,18.63
2023-04-17T02:13:14.478Z,21.17
2023-04-17T02:15:41.720Z,21.52
2023-04-17T02:18:09.459Z,21.88
2023-04-17T02:20:37.368Z,23.45
2023-04-17T02:23:06.595Z,23.88
2023-04-17T02:25:34.342Z,25.42
2023-04-17T02:28:01.479Z,25.67
2023-04-17T02:30:28.630Z,25.48
2023-04-17T02:32:56.518Z,27.13
2023-04-17T02:35:26.704Z,27.33
2023-04-17T02:37:53.822Z,26.63
2023-04-17T02:40:21.341Z,26.70
2023-04-17T02:42:48.246Z,25.77
2023-04-17T02:45:15.502Z,25.83
2023-04-17T02:47:42.528Z,27.05
2023-04-17T02:50:10.172Z,29.30
2023-04-17T02:52:37.090Z,30.60
2023-04-17T02:55:04.278Z,29.20
2023-04-17T02:57:31.131Z,29.60
2023-04-17T02:59:58.061Z,30.25
2023-04-17T03:02:25.027Z,31.10
2023-04-17T03:04:52.633Z,31.85
2023-04-17T03:07:21.214Z,31.00
2023-04-17T03:09:48.422Z,31.38
2023-04-17T03:12:16.563Z,29.63
2023-04-17T03:14:44.086Z,29.35
2023-04-17T03:17:11.892Z,30.63
2023-04-17T03:19:38.725Z,33.25
2023-04-17T03:22:05.860Z,34.33
2023-04-17T03:24:33.426Z,34.67
2023-04-17T03:27:01.124Z,35.33
2023-04-17T03:29:28.709Z,33.15
2023-04-17T03:31:55.857Z,33.05
2023-04-17T03:34:22.799Z,31.80
2023-04-17T03:36:49.855Z,31.95
2023-04-17T03:39:17.001Z,31.48
2023-04-17T03:41:43.879Z,31.05
2023-04-17T03:44:10.772Z,36.17
2023-04-17T03:46:38.417Z,35.63
2023-04-17T03:49:05.774Z,32.72
2023-04-17T03:51:32.788Z,32.45
2023-04-17T03:54:00.115Z,32.72
2023-04-17T03:56:27.213Z,38.70
2023-04-17T03:58:54.187Z,39.20
2023-04-17T04:01:22.480Z,40.83
2023-04-17T04:03:50.709Z,39.72
2023-04-17T04:06:20.339Z,41.60
2023-04-17T04:08:47.314Z,42.50
2023-04-17T04:11:14.177Z,43.67
2023-04-17T04:13:41.272Z,42.60
2023-04-17T04:16:08.736Z,44.90
2023-04-17T04:18:37.170Z,44.75
2023-04-17T04:21:04.171Z,45.42
2023-04-17T04:23:31.125Z,46.80
2023-04-17T04:26:01.981Z,46.63
2023-04-17T04:28:30.308Z,45.90
2023-04-17T04:30:58.843Z,48.13
2023-04-17T04:33:25.874Z,45.78
2023-04-17T04:35:56.107Z,46.55
2023-04-17T04:38:29.968Z,45.10
2023-04-17T04:41:06.475Z,41.67
2023-04-17T04:43:34.078Z,43.28
2023-04-17T04:46:01.385Z,42.35
2023-04-17T04:48:28.943Z,42.30
2023-04-17T04:50:56.471Z,42.90
2023-04-17T04:53:23.361Z,42.95
2023-04-17T04:55:50.248Z,43.67
2023-04-17T04:58:17.116Z,43.78
2023-04-17T05:00:44.204Z,43.25
2023-04-17T05:03:11.335Z,42.78
2023-04-17T05:05:38.618Z,43.55
2023-04-17T05:08:05.921Z,44.17
2023-04-17T05:10:33.437Z,45.25
2023-04-17T05:13:00.276Z,44.08
2023-04-17T05:15:27.913Z,44.75
2023-04-17T05:17:54.751Z,43.72
2023-04-17T05:20:21.852Z,45.17
2023-04-17T05:22:49.706Z,46.00
2023-04-17T05:25:16.707Z,45.97
2023-04-17T05:27:43.758Z,45.05
2023-04-17T05:30:11.369Z,46.50
2023-04-17T05:32:38.587Z,44.83
2023-04-17T05:35:06.469Z,44.90
2023-04-17T05:37:33.405Z,47.42
2023-04-17T05:40:01.373Z,45.25
2023-04-17T05:42:28.239Z,47.55
2023-04-17T05:44:55.056Z,46.33
2023-04-17T05:47:21.893Z,48.75
2023-04-17T05:49:51.208Z,47.72
2023-04-17T05:52:18.458Z,45.60
2023-04-17T05:54:45.587Z,48.15
2023-04-17T05:57:12.510Z,47.00
2023-04-17T05:59:39.670Z,46.15
2023-04-17T06:02:08.105Z,45.13
2023-04-17T06:04:36.601Z,44.10
2023-04-17T06:07:06.275Z,46.60
2023-04-17T06:09:33.606Z,44.97
2023-04-17T06:12:00.733Z,45.70
2023-04-17T06:14:27.753Z,46.08
2023-04-17T06:16:54.959Z,46.85
2023-04-17T06:19:22.517Z,47.65
2023-04-17T06:21:50.016Z,46.15
2023-04-17T06:24:18.836Z,47.05
2023-04-17T06:26:45.852Z,46.80
2023-04-17T06:29:13.940Z,48.35
2023-04-17T06:31:41.189Z,48.33
2023-04-17T06:34:08.224Z,45.40
2023-04-17T06:36:35.074Z,45.60
2023-04-17T06:39:02.002Z,46.75
2023-04-17T06:41:29.207Z,44.08
2023-04-17T06:43:56.355Z,44.10
2023-04-17T06:46:23.665Z,42.70
2023-04-17T06:48:52.371Z,44.00
2023-04-17T06:51:21.065Z,40.78
2023-04-17T06:53:48.448Z,43.63
2023-04-17T06:56:15.565Z,42.80
2023-04-17T06:58:46.346Z,45.20
2023-04-17T07:01:14.277Z,46.03
2023-04-17T07:03:44.505Z,45.88
2023-04-17T07:06:13.481Z,45.78
2023-04-17T07:08:40.399Z,46.25
2023-04-17T07:11:07.554Z,46.38
2023-04-17T07:13:34.842Z,47.13
2023-04-17T07:16:02.094Z,47.47
2023-04-17T07:18:31.997Z,50.03
2023-04-17T07:20:58.977Z,49.60
2023-04-17T07:23:26.083Z,50.20
2023-04-17T07:25:53.256Z,50.17
2023-04-17T07:28:20.366Z,47.05
2023-04-17T07:30:47.415Z,47.00
2023-04-17T07:33:14.655Z,46.60
2023-04-17T07:35:43.022Z,46.60
2023-04-17T07:38:09.916Z,46.65
2023-04-17T07:40:37.038Z,45.53
2023-04-17T07:43:04.263Z,44.38
2023-04-17T07:45:31.755Z,44.33
2023-04-17T07:47:58.844Z,45.08
2023-04-17T07:50:25.829Z,43.95
2023-04-17T07:52:52.733Z,44.53
2023-04-17T07:55:19.912Z,43.38
2023-04-17T07:57:47.028Z,44.72
2023-04-17T08:00:14.841Z,44.22
2023-04-17T08:02:42.871Z,43.60
2023-04-17T08:05:10.631Z,43.33
2023-04-17T08:07:37.884Z,43.25
2023-04-17T08:10:05.821Z,43.13
2023-04-17T08:12:33.478Z,42.33
2023-04-17T08:15:00.308Z,42.33
2023-04-17T08:17:30.073Z,39.17
2023-04-17T08:19:57.747Z,39.60
2023-04-17T08:22:26.143Z,37.08
2023-04-17T08:24:57.687Z,39.10
2023-04-17T08:27:25.805Z,37.35
2023-04-17T08:29:53.769Z,36.38
2023-04-17T08:32:21.586Z,36.92
2023-04-17T08:34:48.810Z,35.40
2023-04-17T08:37:15.761Z,34.53
2023-04-17T08:39:42.820Z,34.47
2023-04-17T08:42:15.394Z,32.45
2023-04-17T08:44:45.640Z,32.20
2023-04-17T08:47:13.513Z,36.78
2023-04-17T08:49:43.818Z,37.33
2023-04-17T08:52:11.586Z,35.95
2023-04-17T08:54:39.670Z,37.13
2023-04-17T08:57:06.875Z,39.17
2023-04-17T08:59:34.176Z,39.78
2023-04-17T09:02:08.590Z,38.80
2023-04-17T09:04:39.493Z,38.83
2023-04-17T09:07:07.540Z,39.28
2023-04-17T09:10:00.824Z,40.67
2023-04-17T09:12:28.181Z,39.47
2023-04-17T09:14:55.667Z,34.50
2023-04-17T09:17:22.835Z,33.08
2023-04-17T09:20:10.023Z,31.48
2023-04-17T09:22:39.326Z,31.50
2023-04-17T09:25:17.678Z,34.03
2023-04-17T09:27:45.399Z,33.47
2023-04-17T09:30:13.657Z,33.60
2023-04-17T09:32:41.025Z,32.95
2023-04-17T09:35:08.277Z,33.80
2023-04-17T09:37:55.532Z,36.85
2023-04-17T09:40:25.130Z,34.85
2023-04-17T09:42:59.403Z,36.88
2023-04-17T09:45:33.177Z,35.58
2023-04-17T09:48:01.062Z,32.97
2023-04-17T09:50:28.784Z,34.28
2023-04-17T09:52:56.216Z,34.42
2023-04-17T09:55:26.605Z,33.70
2023-04-17T09:57:57.978Z,33.38
2023-04-17T10:00:27.662Z,34.22
2023-04-17T10:02:57.443Z,35.72
2023-04-17T10:05:30.253Z,32.90
2023-04-17T10:07:57.913Z,32.63
2023-04-17T10:10:27.610Z,24.65
2023-04-17T10:12:57.395Z,25.08
2023-04-17T10:15:25.696Z,24.20
2023-04-17T10:17:53.785Z,24.20
2023-04-17T10:20:24.076Z,24.75
2023-04-17T10:22:56.981Z,23.92
2023-04-17T10:25:27.953Z,24.73
2023-04-17T10:28:02.285Z,25.38
2023-04-17T10:30:53.974Z,25.02
2023-04-17T10:33:26.048Z,25.20
2023-04-17T10:35:54.012Z,25.13
2023-04-17T10:38:35.491Z,23.55
2023-04-17T10:41:04.305Z,23.95
2023-04-17T10:43:32.119Z,24.90
2023-04-17T10:46:12.476Z,22.85
2023-04-17T10:48:52.684Z,23.13
2023-04-17T10:51:28.997Z,22.23
2023-04-17T10:53:56.817Z,21.75
2023-04-17T10:56:39.601Z,21.77
2023-04-17T10:59:10.400Z,21.63
2023-04-17T11:01:37.596Z,23.60
2023-04-17T11:04:04.949Z,27.17
2023-04-17T11:06:37.296Z,28.17
2023-04-17T11:09:07.653Z,28.38
2023-04-17T11:11:44.047Z,26.08
2023-04-17T11:14:14.871Z,24.60
2023-04-17T11:16:44.234Z,23.98
2023-04-17T11:19:16.855Z,23.80
2023-04-17T11:21:54.303Z,24.23
2023-04-17T11:24:24.818Z,22.70
2023-04-17T11:26:51.951Z,25.33
2023-04-17T11:29:21.953Z,25.58
2023-04-17T11:31:52.043Z,23.40
2023-04-17T11:34:19.396Z,23.00
2023-04-17T11:37:04.436Z,23.23
2023-04-17T11:39:34.003Z,23.80
2023-04-17T11:42:05.184Z,22.52
2023-04-17T11:44:32.376Z,24.13
2023-04-17T11:46:59.532Z,25.45
2023-04-17T11:49:30.621Z,30.75
2023-04-17T11:52:01.339Z,27.42
2023-04-17T11:54:38.856Z,25.92
2023-04-17T11:57:12.876Z,24.38
2023-04-17T11:59:42.306Z,24.75
2023-04-17T12:02:10.570Z,24.55
2023-04-17T12:04:40.141Z,23.35
2023-04-17T12:07:08.578Z,24.17
2023-04-17T12:09:36.939Z,25.95
2023-04-17T12:12:08.029Z,28.13
2023-04-17T12:14:35.622Z,31.35
2023-04-17T12:17:02.485Z,33.40
2023-04-17T12:19:31.853Z,31.90
2023-04-17T12:21:59.670Z,32.63
2023-04-17T12:24:26.789Z,31.70
2023-04-17T12:26:53.841Z,34.00
2023-04-17T12:29:29.386Z,39.55
2023-04-17T12:32:07.904Z,43.95
2023-04-17T12:34:35.082Z,43.75
2023-04-17T12:37:02.013Z,43.83
2023-04-17T12:39:29.165Z,43.58
2023-04-17T12:41:56.445Z,40.35
2023-04-17T12:44:23.429Z,42.42
2023-04-17T12:46:50.525Z,39.00
2023-04-17T12:49:17.568Z,38.40
2023-04-17T12:51:44.593Z,37.25
2023-04-17T12:54:11.849Z,36.03
2023-04-17T12:56:38.961Z,36.83
2023-04-17T12:59:05.864Z,36.83
2023-04-17T13:01:32.943Z,36.30
2023-04-17T13:04:00.250Z,36.67
2023-04-17T13:06:28.466Z,35.97
2023-04-17T13:08:55.630Z,36.00
2023-04-17T13:11:22.658Z,35.53
2023-04-17T13:13:49.625Z,36.25
2023-04-17T13:16:16.700Z,36.00
2023-04-17T13:18:43.567Z,32.72
2023-04-17T13:21:10.762Z,31.67
2023-04-17T13:23:37.644Z,32.17
2023-04-17T13:26:04.988Z,29.85
2023-04-17T13:28:31.967Z,31.98
2023-04-17T13:30:58.950Z,31.77
2023-04-17T13:33:25.869Z,31.10
2023-04-17T13:35:53.938Z,32.50
2023-04-17T13:38:20.896Z,31.23
2023-04-17T13:40:47.721Z,30.45
2023-04-17T13:43:14.587Z,29.50
2023-04-17T13:45:41.494Z,30.05
2023-04-17T13:48:08.366Z,29.65
2023-04-17T13:50:35.366Z,29.23
2023-04-17T13:53:02.334Z,30.23
2023-04-17T13:55:29.393Z,28.17
2023-04-17T13:57:57.566Z,28.08
2023-04-17T14:00:24.597Z,29.13
2023-04-17T14:02:52.020Z,28.33
2023-04-17T14:05:19.074Z,28.80
2023-04-17T14:07:46.160Z,28.40
2023-04-17T14:10:13.152Z,28.63
2023-04-17T14:12:39.950Z,28.02
2023-04-17T14:15:07.538Z,27.48
2023-04-17T14:17:38.075Z,27.38
2023-04-17T14:20:06.001Z,27.73
2023-04-17T14:22:33.028Z,26.90
2023-04-17T14:24:59.833Z,27.05
2023-04-17T14:27:26.936Z,27.40
2023-04-17T14:29:53.868Z,26.20
2023-04-17T14:32:20.880Z,27.30
2023-04-17T14:34:47.691Z,26.55
2023-04-17T14:37:14.668Z,25.73
2023-04-17T14:39:41.572Z,27.63
2023-04-17T14:42:08.818Z,24.48
2023-04-17T14:44:35.819Z,25.15
2023-04-17T14:47:03.021Z,25.90
2023-04-17T14:49:30.496Z,25.40
2023-04-17T14:51:57.369Z,26.70
2023-04-17T14:54:24.309Z,26.80
2023-04-17T14:56:51.274Z,28.40
2023-04-17T14:59:18.296Z,24.70
2023-04-17T15:01:45.324Z,24.48
2023-04-17T15:04:12.736Z,24.08
2023-04-17T15:06:39.765Z,24.88
2023-04-17T15:09:06.979Z,22.65
2023-04-17T15:11:33.869Z,23.67
2023-04-17T15:14:00.859Z,22.25
2023-04-17T15:16:27.841Z,21.20
2023-04-17T15:18:54.642Z,21.50
2023-04-17T15:21:21.647Z,20.80
2023-04-17T15:23:48.746Z,21.13
2023-04-17T15:26:15.696Z,21.80
2023-04-17T15:28:42.585Z,22.13
2023-04-17T15:31:09.731Z,21.50
2023-04-17T15:33:39.091Z,20.88
2023-04-17T15:36:06.176Z,22.30
2023-04-17T15:38:33.290Z,20.35
2023-04-17T15:41:00.866Z,20.25
2023-04-17T15:43:27.937Z,21.23
2023-04-17T15:45:55.558Z,20.80
2023-04-17T15:48:22.623Z,20.23
2023-04-17T15:50:49.698Z,20.33
2023-04-17T15:53:16.688Z,20.10
2023-04-17T15:55:43.694Z,18.73
2023-04-17T15:58:10.742Z,18.60
2023-04-17T16:00:37.755Z,17.58
2023-04-17T16:03:10.145Z,19.20
2023-04-17T16:05:37.792Z,20.17
2023-04-17T16:08:04.732Z,21.80
2023-04-17T16:10:31.534Z,22.40
2023-04-17T16:12:58.484Z,21.52
2023-04-17T16:15:25.531Z,21.20
2023-04-17T16:17:52.707Z,22.23
2023-04-17T16:20:19.670Z,22.00
2023-04-17T16:22:46.723Z,21.20
2023-04-17T16:25:13.702Z,21.38
2023-04-17T16:27:41.202Z,21.85
2023-04-17T16:30:09.394Z,21.13
2023-04-17T16:32:37.185Z,23.63
2023-04-17T16:35:04.301Z,23.73
2023-04-17T16:37:31.061Z,22.75
2023-04-17T16:40:03.096Z,22.52
2023-04-17T16:42:30.089Z,22.15
2023-04-17T16:44:56.849Z,21.88
2023-04-17T16:47:23.719Z,21.75
2023-04-17T16:49:50.782Z,21.42
2023-04-17T16:52:17.681Z,22.88
2023-04-17T16:54:44.715Z,23.35
2023-04-17T16:57:11.606Z,23.38
2023-04-17T16:59:38.592Z,25.17
2023-04-17T17:02:05.945Z,24.17
2023-04-17T17:04:34.881Z,24.83
2023-04-17T17:07:02.312Z,23.95
2023-04-17T17:09:29.603Z,24.58
2023-04-17T17:11:56.981Z,23.98
2023-04-17T17:14:24.060Z,23.60
2023-04-17T17:16:51.116Z,24.48
2023-04-17T17:19:18.034Z,24.17
2023-04-17T17:21:45.081Z,22.77
2023-04-17T17:24:12.200Z,23.85
2023-04-17T17:26:39.208Z,23.88
2023-04-17T17:29:06.168Z,23.27
2023-04-17T17:31:34.516Z,23.65
2023-04-17T17:34:11.873Z,31.40
2023-04-17T17:36:49.314Z,32.05
2023-04-17T17:39:16.731Z,31.33
2023-04-17T17:41:45.876Z,32.10
2023-04-17T17:44:14.689Z,32.83
2023-04-17T17:46:41.948Z,34.00
2023-04-17T17:49:09.678Z,32.88
2023-04-17T17:51:36.839Z,32.60
2023-04-17T17:54:04.041Z,33.47
2023-04-17T17:56:30.883Z,32.30
2023-04-17T17:58:57.848Z,32.75
2023-04-17T18:01:25.109Z,32.47
2023-04-17T18:03:53.463Z,34.35
2023-04-17T18:06:21.209Z,33.10
2023-04-17T18:08:54.163Z,32.67
2023-04-17T18:11:21.297Z,32.15
2023-04-17T18:13:48.379Z,33.15
2023-04-17T18:16:15.580Z,32.08
2023-04-17T18:18:42.889Z,30.83
2023-04-17T18:21:11.177Z,32.15
2023-04-17T18:23:38.066Z,31.17
2023-04-17T18:26:05.109Z,31.48
2023-04-17T18:28:33.040Z,31.50
2023-04-17T18:31:00.083Z,32.60
2023-04-17T18:33:28.785Z,30.38
2023-04-17T18:35:55.628Z,31.48
2023-04-17T18:38:22.581Z,32.40
2023-04-17T18:41:01.110Z,31.70
2023-04-17T18:43:28.527Z,30.17
2023-04-17T18:45:55.347Z,32.22
2023-04-17T18:48:23.248Z,33.28
2023-04-17T18:50:51.071Z,33.03
2023-04-17T18:53:17.902Z,32.00
2023-04-17T18:55:44.825Z,34.45
2023-04-17T18:58:11.661Z,34.13
2023-04-17T19:00:38.689Z,35.00
2023-04-17T19:03:06.773Z,40.65
2023-04-17T19:05:35.125Z,34.22
2023-04-17T19:08:02.033Z,33.55
2023-04-17T19:10:30.067Z,33.33
2023-04-17T19:12:57.024Z,34.28
2023-04-17T19:15:24.389Z,35.22
2023-04-17T19:17:52.403Z,35.78
2023-04-17T19:20:19.735Z,33.95
2023-04-17T19:22:46.726Z,34.05
2023-04-17T19:25:13.852Z,35.30
2023-04-17T19:27:40.655Z,34.25
2023-04-17T19:30:08.605Z,35.25
2023-04-17T19:32:35.661Z,36.58
2023-04-17T19:35:02.583Z,35.63
2023-04-17T19:37:29.534Z,35.03
2023-04-17T19:39:56.813Z,33.47
2023-04-17T19:42:23.793Z,34.03
2023-04-17T19:44:50.737Z,41.15
2023-04-17T19:47:17.610Z,36.10
2023-04-17T19:49:44.894Z,37.20
2023-04-17T19:52:12.202Z,34.45
2023-04-17T19:54:39.413Z,33.95
2023-04-17T19:57:06.457Z,33.50
2023-04-17T19:59:33.359Z,33.90
2023-04-17T20:02:00.416Z,32.67
2023-04-17T20:04:29.410Z,34.53
2023-04-17T20:06:56.629Z,34.55
2023-04-17T20:09:23.846Z,33.72
2023-04-17T20:11:50.684Z,32.22
2023-04-17T20:14:19.575Z,34.22
2023-04-17T20:16:48.743Z,30.60
2023-04-17T20:19:18.870Z,31.77
2023-04-17T20:21:47.141Z,32.20
2023-04-17T20:24:15.959Z,32.35
2023-04-17T20:26:44.353Z,31.52
2023-04-17T20:29:11.535Z,33.75
2023-04-17T20:31:39.013Z,31.77
2023-04-17T20:34:05.992Z,32.58
2023-04-17T20:36:32.904Z,32.97
2023-04-17T20:38:59.749Z,34.22
2023-04-17T20:41:26.931Z,34.20
2023-04-17T20:44:01.157Z,34.00
2023-04-17T20:46:28.823Z,33.70
2023-04-17T20:48:55.876Z,32.88
2023-04-17T20:51:25.212Z,33.42
2023-04-17T20:53:52.912Z,33.15
2023-04-17T20:56:21.719Z,34.63
2023-04-17T20:58:48.672Z,33.05
2023-04-17T21:01:16.662Z,34.22
2023-04-17T21:03:45.840Z,34.53
2023-04-17T21:06:13.023Z,34.00
2023-04-17T21:08:40.110Z,35.00
2023-04-17T21:11:07.096Z,34.67
2023-04-17T21:13:35.138Z,33.00
2023-04-17T21:16:02.378Z,33.25
2023-04-17T21:18:29.348Z,34.85
2023-04-17T21:20:56.480Z,35.95
2023-04-17T21:23:23.466Z,34.28
2023-04-17T21:25:51.902Z,34.03
2023-04-17T21:28:19.088Z,33.83
2023-04-17T21:30:46.582Z,35.63
2023-04-17T21:33:13.423Z,36.30
2023-04-17T21:35:40.286Z,34.78
2023-04-17T21:38:07.161Z,34.55
2023-04-17T21:40:36.682Z,34.85
2023-04-17T21:43:04.490Z,33.30
2023-04-17T21:45:32.232Z,35.45
2023-04-17T21:47:59.190Z,33.83
2023-04-17T21:50:26.459Z,34.33
2023-04-17T21:52:53.286Z,35.95
2023-04-17T21:55:20.453Z,35.05
2023-04-17T21:57:47.401Z,34.60
2023-04-17T22:00:14.650Z,36.05
2023-04-17T22:02:41.683Z,34.40
2023-04-17T22:05:09.380Z,36.15
2023-04-17T22:07:47.241Z,37.08
2023-04-17T22:10:21.047Z,35.13
2023-04-17T22:12:47.829Z,36.25
2023-04-17T22:15:14.741Z,36.28
2023-04-17T22:17:41.575Z,37.28
2023-04-17T22:20:09.133Z,36.42
2023-04-17T22:22:35.998Z,37.45
2023-04-17T22:25:03.054Z,38.38
2023-04-17T22:27:29.847Z,40.10
2023-04-17T22:29:56.662Z,38.88
2023-04-17T22:32:23.718Z,39.22
2023-04-17T22:34:50.706Z,38.00
2023-04-17T22:37:18.488Z,39.03
2023-04-17T22:39:45.449Z,39.38
2023-04-17T22:42:12.393Z,39.60
2023-04-17T22:44:39.238Z,40.38
2023-04-17T22:47:06.122Z,41.72
2023-04-17T22:49:38.079Z,41.30
2023-04-17T22:52:06.230Z,40.00
2023-04-17T22:54:36.769Z,40.00
2023-04-17T22:57:03.987Z,40.25
2023-04-17T22:59:31.013Z,39.33
2023-04-17T23:01:58.268Z,40.70
2023-04-17T23:04:26.946Z,39.25
2023-04-17T23:06:53.781Z,40.38
2023-04-17T23:09:20.721Z,42.08
2023-04-17T23:11:47.725Z,40.42
2023-04-17T23:14:14.997Z,42.30
2023-04-17T23:16:42.062Z,42.63
2023-04-17T23:19:08.855Z,42.97
2023-04-17T23:21:35.906Z,43.00
2023-04-17T23:24:03.068Z,42.38
2023-04-17T23:26:29.977Z,41.55
2023-04-17T23:28:56.782Z,41.28
2023-04-17T23:31:23.919Z,43.63
2023-04-17T23:33:50.819Z,44.33
2023-04-17T23:36:17.703Z,42.83
2023-04-17T23:38:44.522Z,44.45
2023-04-17T23:41:11.686Z,44.38
2023-04-17T23:43:38.704Z,43.13
2023-04-17T23:46:06.288Z,44.10
2023-04-17T23:48:33.121Z,45.67
2023-04-17T23:51:00.440Z,48.08
2023-04-17T23:53:27.215Z,46.08
2023-04-17T23:55:54.443Z,47.33
2023-04-17T23:58:21.475Z,49.53
